Time;durP1;ratioP1;P1;durP2;ratioP2;P2;SDS_P1;SDS_P2;PMS_P1;PMS_P2;Temp;Humidity;BMP_temperature;BMP_pressure;BME280_temperature;BME280_humidity;BME280_pressure;Samples;Min_cycle;Max_cycle;Signal;HPM_P1;HPM_P2
2023/09/15 00:00:59;;;;;;;13.43;9.55;;;;;;;13.40;90.11;101895.84;5001474;28;20045;-83
2023/09/15 00:03:26;;;;;;;15.85;9.35;;;;;;;13.40;89.99;101901.13;5022042;28;20398;-79
2023/09/15 00:05:53;;;;;;;14.60;10.15;;;;;;;13.35;90.08;101896.81;5009896;28;20044;-78
2023/09/15 00:08:21;;;;;;;16.50;10.15;;;;;;;13.34;90.45;101902.13;5024917;28;20057;-78
2023/09/15 00:10:48;;;;;;;14.30;9.43;;;;;;;13.27;90.33;101901.44;5005708;28;20050;-80
2023/09/15 00:13:15;;;;;;;15.02;9.90;;;;;;;13.23;90.52;101902.41;5002772;28;20061;-80
2023/09/15 00:15:43;;;;;;;15.85;10.70;;;;;;;13.17;90.78;101899.94;5020776;28;20121;-79
2023/09/15 00:18:10;;;;;;;13.02;9.43;;;;;;;13.10;90.83;101891.25;5001327;28;20046;-80
2023/09/15 00:20:38;;;;;;;16.02;9.68;;;;;;;13.10;90.92;101893.91;5007174;28;20042;-79
2023/09/15 00:23:05;;;;;;;14.70;9.55;;;;;;;13.11;91.61;101890.34;5009209;28;20045;-79
2023/09/15 00:25:32;;;;;;;13.75;9.38;;;;;;;13.12;91.57;101889.44;5009846;28;20053;-79
2023/09/15 00:28:03;;;;;;;16.15;9.95;;;;;;;13.14;91.52;101886.75;5009050;28;20611;-79
2023/09/15 00:30:32;;;;;;;14.48;9.45;;;;;;;13.16;91.93;101882.28;5040868;28;20050;-79
2023/09/15 00:32:59;;;;;;;14.30;9.98;;;;;;;13.14;91.91;101877.03;5007231;28;20046;-80
2023/09/15 00:35:28;;;;;;;16.92;9.30;;;;;;;13.15;91.87;101875.25;5008982;28;20535;-79
2023/09/15 00:37:55;;;;;;;14.48;9.57;;;;;;;13.15;91.83;101872.63;5008049;28;20038;-79
2023/09/15 00:40:24;;;;;;;15.57;9.25;;;;;;;13.17;91.98;101876.09;5022825;28;20053;-80
2023/09/15 00:42:52;;;;;;;15.27;9.43;;;;;;;13.15;91.97;101877.91;5020078;28;20113;-78
2023/09/15 00:45:21;;;;;;;13.90;9.70;;;;;;;13.14;92.07;101878.81;5006786;28;20056;-81
2023/09/15 00:47:56;;;;;;;16.80;9.50;;;;;;;13.15;92.15;101877.91;5021619;28;20048;-81
2023/09/15 00:50:29;;;;;;;15.68;8.77;;;;;;;13.13;92.02;101874.41;5005385;28;20133;-81
2023/09/15 00:53:04;;;;;;;15.48;10.07;;;;;;;13.09;92.09;101868.34;5007313;28;20073;-81
2023/09/15 00:55:34;;;;;;;15.75;9.77;;;;;;;13.07;92.00;101869.28;5009059;28;20042;-80
2023/09/15 00:58:08;;;;;;;14.30;9.20;;;;;;;13.04;91.96;101867.56;5007585;28;20506;-80
2023/09/15 01:00:37;;;;;;;16.00;9.15;;;;;;;13.00;92.23;101866.78;5007302;28;20045;-81
2023/09/15 01:03:05;;;;;;;16.17;9.80;;;;;;;12.97;92.37;101869.47;5007796;28;20574;-81
2023/09/15 01:05:34;;;;;;;13.48;9.50;;;;;;;12.92;92.44;101868.72;5007717;28;20120;-80
2023/09/15 01:08:03;;;;;;;14.48;9.68;;;;;;;12.84;92.49;101865.41;5007650;28;20148;-81
2023/09/15 01:10:30;;;;;;;15.15;10.15;;;;;;;12.78;92.61;101862.88;5007288;28;20065;-81
2023/09/15 01:12:57;;;;;;;15.55;9.63;;;;;;;12.73;92.93;101866.53;5024441;28;20133;-81
2023/09/15 01:15:40;;;;;;;13.45;9.80;;;;;;;12.69;93.13;101859.56;5008710;28;20049;-81
2023/09/15 01:18:30;;;;;;;15.18;9.85;;;;;;;12.63;93.30;101857.06;5007740;28;20056;-80
2023/09/15 01:21:25;;;;;;;15.00;9.75;;;;;;;12.58;93.41;101856.28;5004189;28;20041;-80
2023/09/15 01:24:53;;;;;;;19.50;10.38;;;;;;;12.55;93.73;101854.59;5000529;28;20038;-80
2023/09/15 01:27:47;;;;;;;15.23;10.35;;;;;;;12.52;94.05;101854.63;4982956;28;20481;-80
2023/09/15 01:30:17;;;;;;;13.95;9.55;;;;;;;12.48;94.12;101850.34;4952432;28;20079;-80
2023/09/15 01:32:46;;;;;;;18.35;10.23;;;;;;;12.47;94.68;101859.19;4979960;28;20072;-81
2023/09/15 01:35:13;;;;;;;15.65;9.95;;;;;;;12.39;94.72;101846.13;4983978;28;20053;-81
2023/09/15 01:37:40;;;;;;;15.30;10.75;;;;;;;12.35;94.80;101855.03;4985134;28;20116;-80
2023/09/15 01:40:09;;;;;;;17.23;9.23;;;;;;;12.31;95.30;101840.13;4984237;28;20045;-81
2023/09/15 01:42:40;;;;;;;16.50;9.85;;;;;;;12.27;95.43;101838.44;4986479;28;20042;-81
2023/09/15 01:45:09;;;;;;;15.07;9.93;;;;;;;12.25;95.58;101843.78;4985968;28;20105;-81
2023/09/15 01:47:37;;;;;;;16.60;10.25;;;;;;;12.25;95.79;101835.84;4985736;28;20610;-81
2023/09/15 01:50:07;;;;;;;15.90;10.30;;;;;;;12.23;95.92;101839.44;4982336;28;20061;-80
2023/09/15 01:52:34;;;;;;;18.55;10.27;;;;;;;12.20;95.95;101832.44;4984968;28;20506;-81
2023/09/15 01:55:03;;;;;;;14.27;10.15;;;;;;;12.19;96.22;101835.97;4984559;28;20108;-79
2023/09/15 01:57:30;;;;;;;12.27;9.20;;;;;;;12.17;96.02;101834.25;4969167;28;20049;-81
2023/09/15 01:59:58;;;;;;;14.98;9.80;;;;;;;12.16;96.30;101837.81;4985681;28;20054;-81
2023/09/15 02:02:25;;;;;;;18.27;10.13;;;;;;;12.17;96.45;101837.78;4986942;28;20108;-79
2023/09/15 02:04:53;;;;;;;14.23;9.57;;;;;;;12.15;96.47;101833.44;4986226;28;20066;-79
2023/09/15 02:07:20;;;;;;;16.10;9.57;;;;;;;12.14;96.40;101831.69;4988137;28;20064;-79
2023/09/15 02:09:47;;;;;;;18.58;10.05;;;;;;;12.14;96.53;101835.19;4985279;28;20498;-78
2023/09/15 02:12:14;;;;;;;17.50;9.68;;;;;;;12.14;96.46;101834.34;4987555;28;20054;-78
2023/09/15 02:14:44;;;;;;;16.35;10.27;;;;;;;12.13;96.37;101832.59;4987639;28;20133;-82
2023/09/15 02:17:15;;;;;;;16.65;9.65;;;;;;;12.13;96.44;101824.66;4989411;28;20069;-83
2023/09/15 02:19:43;;;;;;;17.15;9.77;;;;;;;12.16;96.75;101827.25;4983563;28;20038;-82
2023/09/15 02:22:10;;;;;;;18.67;10.40;;;;;;;12.20;96.70;101826.25;4968611;28;20077;-82
2023/09/15 02:24:37;;;;;;;15.63;9.65;;;;;;;12.20;96.81;101831.56;4971620;28;20219;-80
2023/09/15 02:27:04;;;;;;;15.38;9.73;;;;;;;12.20;96.75;101834.19;4986750;28;20046;-80
2023/09/15 02:29:32;;;;;;;14.60;9.55;;;;;;;12.17;96.81;101827.22;4987242;28;20050;-80
2023/09/15 02:32:00;;;;;;;16.25;9.90;;;;;;;12.15;96.80;101826.38;5005804;28;20066;-81
2023/09/15 02:34:27;;;;;;;17.30;10.02;;;;;;;12.11;96.80;101828.22;5005908;28;20045;-80
2023/09/15 02:36:54;;;;;;;16.15;9.77;;;;;;;12.07;96.54;101831.81;5007761;28;20034;-80
2023/09/15 02:39:21;;;;;;;13.30;9.90;;;;;;;12.03;96.89;101827.50;5023475;28;20065;-80
2023/09/15 02:41:49;;;;;;;12.57;9.35;;;;;;;11.99;96.91;101828.44;5038624;28;20057;-80
2023/09/15 02:44:16;;;;;;;13.50;9.95;;;;;;;11.94;97.13;101815.31;5006133;28;20041;-80
2023/09/15 02:46:43;;;;;;;17.10;10.30;;;;;;;11.89;97.37;101816.28;5006418;28;20045;-80
2023/09/15 02:49:10;;;;;;;15.60;10.57;;;;;;;11.83;97.43;101817.28;5005483;28;20045;-81
2023/09/15 02:51:37;;;;;;;14.00;9.52;;;;;;;11.80;97.58;101814.72;5003550;28;20053;-81
2023/09/15 02:54:06;;;;;;;13.93;9.75;;;;;;;11.77;97.78;101820.06;5005088;28;20053;-80
2023/09/15 02:56:33;;;;;;;19.45;9.85;;;;;;;11.75;98.34;101811.28;5006608;28;20052;-79
2023/09/15 02:59:00;;;;;;;12.05;9.30;;;;;;;11.74;98.79;101806.91;5006463;28;20045;-79
2023/09/15 03:01:27;;;;;;;14.73;10.48;;;;;;;11.73;98.48;101807.81;5020433;28;20054;-79
2023/09/15 03:03:55;;;;;;;13.43;9.55;;;;;;;11.72;98.76;101814.00;5004794;28;20115;-80
2023/09/15 03:06:25;;;;;;;15.65;10.25;;;;;;;11.66;98.52;101809.69;5003720;28;20042;-79
2023/09/15 03:08:53;;;;;;;17.70;10.20;;;;;;;11.63;98.64;101809.78;4989296;28;20045;-80
2023/09/15 03:11:21;;;;;;;18.23;11.07;;;;;;;11.57;98.52;101802.84;5003972;28;20119;-80
2023/09/15 03:13:54;;;;;;;17.20;10.55;;;;;;;11.53;98.78;101801.13;5018256;28;20453;-80
2023/09/15 03:16:23;;;;;;;14.38;9.95;;;;;;;11.50;98.95;101804.72;5035915;28;20078;-80
2023/09/15 03:18:51;;;;;;;15.93;10.23;;;;;;;11.48;99.21;101809.16;5006697;28;20046;-80
2023/09/15 03:21:19;;;;;;;14.15;10.32;;;;;;;11.50;99.32;101811.75;5004867;28;20414;-81
2023/09/15 03:23:49;;;;;;;15.38;10.82;;;;;;;11.51;99.58;101808.22;5002911;28;20491;-80
2023/09/15 03:26:16;;;;;;;14.68;10.20;;;;;;;11.54;100.00;101808.16;5004945;28;20046;-80
2023/09/15 03:28:46;;;;;;;19.88;10.75;;;;;;;11.56;100.00;101808.13;5038493;28;20203;-80
2023/09/15 03:31:14;;;;;;;14.20;10.48;;;;;;;11.54;100.00;101802.03;5005520;28;20061;-81
2023/09/15 03:33:41;;;;;;;17.08;10.13;;;;;;;11.51;100.00;101797.66;5000555;28;20077;-81
2023/09/15 03:36:11;;;;;;;15.57;9.93;;;;;;;11.50;100.00;101799.44;4986674;28;20121;-79
2023/09/15 03:38:38;;;;;;;14.50;10.30;;;;;;;11.44;100.00;101794.28;4986592;28;20383;-81
2023/09/15 03:41:05;;;;;;;16.48;11.05;;;;;;;11.41;100.00;101798.72;5004051;28;20053;-80
2023/09/15 03:43:33;;;;;;;15.85;10.77;;;;;;;11.38;100.00;101797.03;5003041;28;20046;-81
2023/09/15 03:46:00;;;;;;;16.92;10.20;;;;;;;11.36;100.00;101782.97;5006405;28;20563;-80
2023/09/15 03:48:29;;;;;;;14.68;10.73;;;;;;;11.40;100.00;101786.41;5003415;28;20049;-80
2023/09/15 03:50:56;;;;;;;13.88;10.57;;;;;;;11.38;100.00;101783.81;5003052;28;20042;-78
2023/09/15 03:53:23;;;;;;;15.77;10.55;;;;;;;11.38;100.00;101788.25;5003886;28;20041;-80
2023/09/15 03:55:50;;;;;;;15.32;10.52;;;;;;;11.32;100.00;101783.94;5005372;28;20056;-81
2023/09/15 03:58:17;;;;;;;14.90;10.80;;;;;;;11.29;100.00;101784.00;5005480;28;20089;-80
2023/09/15 04:00:45;;;;;;;18.55;11.40;;;;;;;11.25;100.00;101779.66;5004241;28;20054;-80
2023/09/15 04:03:12;;;;;;;16.35;11.30;;;;;;;11.23;100.00;101784.13;5004781;28;20096;-79
2023/09/15 04:05:39;;;;;;;13.95;10.65;;;;;;;11.21;100.00;101780.63;5021345;28;20623;-81
2023/09/15 04:08:06;;;;;;;19.65;10.27;;;;;;;11.21;100.00;101778.00;5007108;28;20092;-80
2023/09/15 04:10:34;;;;;;;16.45;11.75;;;;;;;11.21;100.00;101781.47;5008315;28;20133;-81
2023/09/15 04:13:02;;;;;;;14.13;11.02;;;;;;;11.18;100.00;101778.91;5007541;28;20045;-82
2023/09/15 04:15:30;;;;;;;16.02;10.63;;;;;;;11.14;100.00;101778.06;5009461;28;21070;-81
2023/09/15 04:17:57;;;;;;;17.15;11.50;;;;;;;11.13;100.00;101773.72;5008816;28;20592;-82
2023/09/15 04:20:27;;;;;;;16.45;10.80;;;;;;;11.15;100.00;101769.25;5007138;28;20091;-81
2023/09/15 04:23:12;;;;;;;15.30;10.10;;;;;;;11.13;100.00;101772.84;4993442;28;20046;-81
2023/09/15 04:25:39;;;;;;;17.85;11.30;;;;;;;11.12;100.00;101779.00;5008570;28;20077;-78
2023/09/15 04:28:08;;;;;;;14.52;10.70;;;;;;;11.09;100.00;101779.94;5008392;28;20399;-78
2023/09/15 04:30:35;;;;;;;15.38;11.10;;;;;;;11.07;100.00;101768.53;5007803;28;20052;-75
2023/09/15 04:33:03;;;;;;;16.65;10.52;;;;;;;11.05;100.00;101772.09;5006034;28;20050;-76
2023/09/15 04:35:30;;;;;;;20.92;11.02;;;;;;;11.06;100.00;101776.50;5017558;28;20046;-75
2023/09/15 04:37:58;;;;;;;15.43;10.20;;;;;;;11.08;100.00;101772.91;5024068;28;20073;-78
2023/09/15 04:40:27;;;;;;;14.45;10.30;;;;;;;11.14;100.00;101775.44;5000624;28;20121;-75
2023/09/15 04:42:55;;;;;;;15.02;10.75;;;;;;;11.17;100.00;101772.75;5023688;28;20431;-75
2023/09/15 04:45:26;;;;;;;16.60;11.27;;;;;;;11.15;100.00;101777.19;5002490;28;20609;-74
2023/09/15 04:47:54;;;;;;;15.98;11.18;;;;;;;11.14;100.00;101779.84;4996016;28;20046;-76
2023/09/15 04:50:23;;;;;;;17.42;11.45;;;;;;;11.12;100.00;101779.00;5007370;28;20895;-74
2023/09/15 04:52:52;;;;;;;17.00;11.05;;;;;;;11.10;100.00;101770.25;5007650;28;20045;-75
2023/09/15 04:55:19;;;;;;;12.10;9.40;;;;;;;11.08;100.00;101775.56;5002966;28;20046;-75
2023/09/15 04:57:47;;;;;;;16.23;10.57;;;;;;;11.13;100.00;101772.84;5006972;28;20038;-75
2023/09/15 05:00:23;;;;;;;14.48;10.50;;;;;;;11.18;100.00;101766.56;5003767;28;20045;-75
2023/09/15 05:02:56;;;;;;;15.60;10.73;;;;;;;11.27;100.00;101778.75;5003547;28;20038;-75
2023/09/15 05:05:26;;;;;;;15.48;11.10;;;;;;;11.33;100.00;101773.34;5005578;28;20608;-75
2023/09/15 05:07:54;;;;;;;15.57;10.70;;;;;;;11.37;100.00;101775.94;4980075;28;20418;-74
2023/09/15 05:10:23;;;;;;;16.38;10.60;;;;;;;11.41;100.00;101788.16;4980815;28;20520;-75
2023/09/15 05:12:51;;;;;;;15.50;10.40;;;;;;;11.46;100.00;101781.91;4966593;28;20053;-75
2023/09/15 05:15:20;;;;;;;15.85;10.40;;;;;;;11.48;100.00;101784.53;4984930;28;20081;-75
2023/09/15 05:17:47;;;;;;;11.82;9.30;;;;;;;11.55;100.00;101780.84;5004857;28;20502;-74
2023/09/15 05:20:16;;;;;;;12.95;9.43;;;;;;;11.62;100.00;101792.19;5002528;28;20053;-74
2023/09/15 05:22:43;;;;;;;13.95;10.30;;;;;;;11.58;100.00;101790.50;5004286;28;20034;-74
2023/09/15 05:25:10;;;;;;;17.25;10.05;;;;;;;11.57;100.00;101796.66;5002919;28;20230;-74
2023/09/15 05:27:38;;;;;;;13.10;10.55;;;;;;;11.61;100.00;101796.56;5000047;28;20133;-73
2023/09/15 05:30:07;;;;;;;11.75;9.52;;;;;;;11.65;100.00;101800.03;5000030;28;20400;-75
2023/09/15 05:32:36;;;;;;;14.85;10.45;;;;;;;11.67;100.00;101794.72;5002187;28;20132;-74
2023/09/15 05:35:08;;;;;;;14.45;9.73;;;;;;;11.67;100.00;101787.66;5004558;28;20050;-75
2023/09/15 05:37:36;;;;;;;16.40;9.85;;;;;;;11.68;99.77;101789.41;5005212;28;20609;-74
2023/09/15 05:40:04;;;;;;;15.75;9.52;;;;;;;11.69;99.61;101798.22;4996623;28;20208;-73
2023/09/15 05:42:31;;;;;;;12.82;9.30;;;;;;;11.71;99.66;101792.00;5003587;28;20552;-75
2023/09/15 05:44:59;;;;;;;13.20;9.10;;;;;;;11.76;99.65;101798.03;5004941;28;20056;-74
2023/09/15 05:47:26;;;;;;;12.60;8.38;;;;;;;11.78;99.66;101795.41;5020595;28;20083;-76
2023/09/15 05:49:54;;;;;;;11.80;8.98;;;;;;;11.85;99.54;101793.50;5005881;28;20046;-74
2023/09/15 05:52:21;;;;;;;12.90;9.07;;;;;;;11.88;99.17;101796.94;5005674;28;20042;-75
2023/09/15 05:54:48;;;;;;;14.02;9.10;;;;;;;11.93;98.87;101797.69;5004699;28;20047;-75
2023/09/15 05:57:16;;;;;;;14.68;9.68;;;;;;;11.97;98.83;101806.44;4986157;28;20066;-74
2023/09/15 05:59:43;;;;;;;15.05;8.95;;;;;;;11.99;98.86;101802.03;4987546;28;20545;-76
2023/09/15 06:02:10;;;;;;;13.93;9.00;;;;;;;12.06;98.60;101800.97;5005941;28;20429;-75
2023/09/15 06:04:37;;;;;;;12.50;9.38;;;;;;;12.08;98.48;101796.53;5006445;28;20057;-75
2023/09/15 06:07:04;;;;;;;12.07;8.48;;;;;;;12.11;98.25;101795.59;5002898;28;20044;-75
2023/09/15 06:09:41;;;;;;;13.25;9.18;;;;;;;12.16;98.29;101798.19;5018212;28;20050;-82
2023/09/15 06:12:08;;;;;;;11.70;8.43;;;;;;;12.22;98.06;101793.59;5002948;28;20125;-76
2023/09/15 06:14:38;;;;;;;14.77;8.13;;;;;;;12.27;97.79;101798.78;5005027;28;20103;-75
2023/09/15 06:17:05;;;;;;;12.80;8.48;;;;;;;12.32;97.73;101804.84;5004221;28;20121;-75
2023/09/15 06:19:32;;;;;;;12.07;8.88;;;;;;;12.36;97.81;101795.94;5006409;28;20046;-75
2023/09/15 06:22:05;;;;;;;14.10;8.63;;;;;;;12.42;97.54;101795.81;5004489;28;20129;-75
2023/09/15 06:24:40;;;;;;;12.82;8.10;;;;;;;12.53;97.53;101803.47;4982116;28;20150;-75
2023/09/15 06:27:07;;;;;;;13.60;8.43;;;;;;;12.63;97.38;101803.25;5001486;28;20050;-75
2023/09/15 06:29:34;;;;;;;12.38;7.35;;;;;;;12.68;96.88;101798.75;5008180;28;20603;-75
2023/09/15 06:32:09;;;;;;;13.90;7.50;;;;;;;12.74;96.66;101801.25;5005608;28;20073;-75
2023/09/15 06:34:39;;;;;;;11.40;7.45;;;;;;;12.78;96.37;101802.03;5005845;28;20709;-75
2023/09/15 06:37:08;;;;;;;12.95;7.18;;;;;;;12.82;96.20;101806.34;5020473;28;20647;-75
2023/09/15 06:39:36;;;;;;;14.45;7.43;;;;;;;12.90;96.21;101799.09;5003708;28;20034;-75
2023/09/15 06:42:08;;;;;;;11.27;7.05;;;;;;;12.98;95.49;101798.91;5005599;28;20053;-75
2023/09/15 06:44:40;;;;;;;10.02;6.88;;;;;;;13.04;95.35;101798.75;4989822;28;20045;-75
2023/09/15 06:47:07;;;;;;;12.30;6.80;;;;;;;13.13;95.09;101795.00;5011269;28;20121;-74
2023/09/15 06:49:35;;;;;;;10.63;6.93;;;;;;;13.22;95.11;101789.47;5005443;28;20046;-75
2023/09/15 06:52:03;;;;;;;11.15;7.22;;;;;;;13.31;94.86;101791.88;5004795;28;20049;-76
2023/09/15 06:54:30;;;;;;;12.07;7.03;;;;;;;13.42;94.77;101790.75;5004737;28;20127;-75
2023/09/15 06:56:57;;;;;;;11.85;7.40;;;;;;;13.49;94.50;101798.47;5005493;28;20408;-75
2023/09/15 06:59:28;;;;;;;9.73;6.88;;;;;;;13.59;94.43;101793.78;5006672;28;20049;-74
2023/09/15 07:01:59;;;;;;;10.23;7.13;;;;;;;13.70;93.89;101784.66;5020304;28;20042;-75
2023/09/15 07:04:26;;;;;;;12.65;6.13;;;;;;;13.75;93.46;101783.63;5007903;28;20080;-76
2023/09/15 07:06:54;;;;;;;9.75;6.13;;;;;;;13.83;93.18;101780.75;5005846;28;20676;-75
2023/09/15 07:09:24;;;;;;;10.80;6.38;;;;;;;13.89;92.96;101782.38;5004328;28;20514;-75
2023/09/15 07:11:55;;;;;;;10.18;5.80;;;;;;;13.96;92.89;101778.63;5004116;28;20635;-75
2023/09/15 07:14:25;;;;;;;9.00;6.03;;;;;;;14.07;92.38;101781.81;5003532;28;20048;-75
2023/09/15 07:16:52;;;;;;;12.43;6.45;;;;;;;14.16;92.02;101777.16;5004928;28;20523;-75
2023/09/15 07:19:19;;;;;;;9.10;5.82;;;;;;;14.25;91.73;101791.00;5016019;28;20042;-75
2023/09/15 07:21:47;;;;;;;10.02;5.65;;;;;;;14.38;91.28;101786.19;5002860;28;20065;-76
2023/09/15 07:24:14;;;;;;;11.77;5.72;;;;;;;14.48;90.84;101781.47;5000041;28;20096;-75
2023/09/15 07:26:41;;;;;;;11.18;5.63;;;;;;;14.55;90.92;101783.00;5000988;28;20050;-75
2023/09/15 07:29:13;;;;;;;16.88;5.85;;;;;;;14.65;90.69;101782.69;5000914;28;20127;-75
2023/09/15 07:31:44;;;;;;;10.40;5.47;;;;;;;14.73;90.94;101781.56;5002048;28;20050;-76
2023/09/15 07:34:15;;;;;;;14.13;5.55;;;;;;;14.86;90.03;101765.22;5003322;28;20049;-76
2023/09/15 07:36:45;;;;;;;12.35;5.45;;;;;;;14.96;88.10;101761.34;5006073;28;20050;-76
2023/09/15 07:39:26;;;;;;;10.38;5.35;;;;;;;15.04;88.21;101761.06;5003623;28;20048;-76
2023/09/15 07:41:53;;;;;;;9.52;4.82;;;;;;;15.10;88.09;101758.22;5007954;28;20037;-75
2023/09/15 07:44:20;;;;;;;7.65;4.35;;;;;;;15.18;87.71;101764.13;5024564;28;20073;-76
2023/09/15 07:46:48;;;;;;;11.68;4.78;;;;;;;15.25;87.88;101763.91;5007433;28;20046;-75
2023/09/15 07:49:18;;;;;;;11.65;5.10;;;;;;;15.27;86.64;101756.75;5007429;28;20038;-76
2023/09/15 07:51:47;;;;;;;9.75;5.13;;;;;;;15.31;85.71;101750.44;5009303;28;20699;-76
2023/09/15 07:54:14;;;;;;;7.30;4.70;;;;;;;15.36;85.55;101753.78;5012710;28;20108;-75
2023/09/15 07:56:42;;;;;;;8.93;4.97;;;;;;;15.46;85.33;101754.31;5007225;28;20049;-76
2023/09/15 07:59:09;;;;;;;9.20;4.68;;;;;;;15.55;84.03;101764.59;5005024;28;20139;-76
2023/09/15 08:01:36;;;;;;;6.57;5.18;;;;;;;15.60;84.48;101762.63;5002765;28;20073;-76
2023/09/15 08:04:05;;;;;;;8.70;4.68;;;;;;;15.72;84.80;101758.66;5008725;28;20041;-76
2023/09/15 08:06:33;;;;;;;7.22;4.72;;;;;;;15.89;83.20;101758.03;5040237;28;20046;-75
2023/09/15 08:09:00;;;;;;;8.52;4.65;;;;;;;16.01;82.81;101759.38;5007442;28;20445;-76
2023/09/15 08:11:27;;;;;;;8.30;4.80;;;;;;;16.12;82.16;101753.63;5020976;28;20054;-75
2023/09/15 08:13:54;;;;;;;13.13;4.80;;;;;;;16.19;82.26;101751.59;5005089;28;20085;-75
2023/09/15 08:16:21;;;;;;;9.43;4.40;;;;;;;16.27;82.34;101758.38;5008619;28;20042;-76
2023/09/15 08:18:48;;;;;;;10.45;5.07;;;;;;;16.35;80.89;101763.34;5013580;28;20050;-76
2023/09/15 08:21:15;;;;;;;12.25;4.90;;;;;;;16.41;81.54;101763.13;5022086;28;20060;-75
2023/09/15 08:23:42;;;;;;;7.43;4.20;;;;;;;16.53;81.09;101755.59;5020568;28;20118;-77
2023/09/15 08:26:09;;;;;;;8.95;4.70;;;;;;;16.63;80.09;101756.06;5024568;28;20073;-77
2023/09/15 08:28:37;;;;;;;11.80;4.40;;;;;;;16.69;78.94;101753.13;5007430;28;20083;-77
2023/09/15 08:31:04;;;;;;;8.65;4.72;;;;;;;16.68;79.05;101754.94;5004768;28;20531;-77
2023/09/15 08:33:31;;;;;;;7.50;4.55;;;;;;;16.66;77.86;101759.44;5007784;28;20050;-77
2023/09/15 08:35:58;;;;;;;9.43;4.72;;;;;;;16.63;78.80;101756.06;5005966;28;20046;-77
2023/09/15 08:38:25;;;;;;;8.50;4.43;;;;;;;16.67;79.55;101749.69;5006515;28;20044;-77
2023/09/15 08:41:01;;;;;;;8.80;4.82;;;;;;;16.79;79.73;101749.16;5022520;28;20050;-76
2023/09/15 08:43:29;;;;;;;13.93;5.55;;;;;;;16.99;79.56;101750.16;4986834;28;20116;-77
2023/09/15 08:46:04;;;;;;;7.57;4.57;;;;;;;17.19;79.09;101747.50;5023620;28;20056;-76
2023/09/15 08:48:40;;;;;;;9.50;4.53;;;;;;;17.35;78.72;101739.66;5005280;28;20049;-77
2023/09/15 08:51:09;;;;;;;11.38;5.35;;;;;;;17.50;78.63;101743.44;5008903;28;20042;-76
2023/09/15 08:53:37;;;;;;;10.00;4.80;;;;;;;17.63;78.66;101740.22;5008413;28;20045;-76
2023/09/15 08:56:04;;;;;;;8.00;4.30;;;;;;;17.77;78.36;101735.13;5006662;28;20115;-76
2023/09/15 08:58:33;;;;;;;8.75;4.32;;;;;;;17.94;77.54;101734.34;5005406;28;20077;-76
2023/09/15 09:01:01;;;;;;;8.23;4.40;;;;;;;18.08;76.05;101735.50;5005391;28;20468;-77
2023/09/15 09:03:28;;;;;;;7.57;4.18;;;;;;;18.15;76.10;101731.63;5008147;28;20052;-76
2023/09/15 09:05:57;;;;;;;7.57;4.75;;;;;;;18.29;75.04;101729.13;5008307;28;20087;-77
2023/09/15 09:08:26;;;;;;;7.30;4.18;;;;;;;18.37;75.36;101726.09;5006788;28;20662;-76
2023/09/15 09:10:53;;;;;;;11.13;5.00;;;;;;;18.48;75.27;101720.22;5005540;28;20104;-76
2023/09/15 09:13:22;;;;;;;6.78;4.20;;;;;;;18.61;74.83;101724.00;5006031;28;20050;-77
2023/09/15 09:16:10;;;;;;;6.78;4.57;;;;;;;18.75;73.78;101720.63;5007219;28;20129;-76
2023/09/15 09:18:38;;;;;;;7.55;4.30;;;;;;;18.84;73.56;101726.44;5022046;28;20041;-77
2023/09/15 09:21:11;;;;;;;9.00;4.60;;;;;;;18.91;73.97;101730.53;5007630;28;20048;-76
2023/09/15 09:23:44;;;;;;;7.15;3.80;;;;;;;19.03;72.82;101726.41;5015153;28;20135;-77
2023/09/15 09:26:14;;;;;;;9.05;3.90;;;;;;;19.13;72.17;101727.63;5005457;28;20444;-77
2023/09/15 09:28:42;;;;;;;10.35;4.07;;;;;;;19.20;70.90;101722.84;5006833;28;20048;-77
2023/09/15 09:31:10;;;;;;;8.15;4.22;;;;;;;19.29;70.70;101726.81;5007216;28;20065;-76
2023/09/15 09:33:41;;;;;;;6.53;4.45;;;;;;;19.35;69.77;101722.00;5007267;28;20052;-77
2023/09/15 09:36:14;;;;;;;10.77;4.22;;;;;;;19.44;70.72;101717.09;4990989;28;20073;-76
2023/09/15 09:38:47;;;;;;;6.13;4.35;;;;;;;19.57;68.91;101714.66;5022739;28;20759;-77
2023/09/15 09:41:24;;;;;;;7.80;3.80;;;;;;;19.64;68.31;101708.88;5000269;28;20079;-77
2023/09/15 09:43:55;;;;;;;6.07;4.07;;;;;;;19.70;68.29;101703.19;5004847;28;20056;-77
2023/09/15 09:46:22;;;;;;;8.10;4.55;;;;;;;19.80;67.90;101705.34;5021441;28;20092;-77
2023/09/15 09:48:51;;;;;;;7.25;4.25;;;;;;;19.91;68.86;101711.00;5005355;28;20461;-78
2023/09/15 09:51:19;;;;;;;8.40;4.40;;;;;;;20.02;68.48;101705.91;5036541;28;20099;-77
2023/09/15 09:53:52;;;;;;;8.88;4.20;;;;;;;20.18;67.90;101715.72;5021378;28;20046;-77
2023/09/15 09:56:22;;;;;;;9.07;4.60;;;;;;;20.29;66.55;101707.09;5003117;28;20038;-77
2023/09/15 09:58:52;;;;;;;8.38;3.65;;;;;;;20.36;64.91;101708.47;5009569;28;20306;-76
2023/09/15 10:01:20;;;;;;;6.22;3.85;;;;;;;20.43;65.14;101706.28;5000807;28;20095;-78
2023/09/15 10:03:47;;;;;;;8.77;4.30;;;;;;;20.50;65.38;101704.13;5004472;28;20069;-76
2023/09/15 10:06:15;;;;;;;7.03;3.85;;;;;;;20.56;64.00;101699.25;5002883;28;20040;-78
2023/09/15 10:08:45;;;;;;;6.93;4.30;;;;;;;20.61;63.15;101701.66;5003893;28;20049;-77
2023/09/15 10:11:13;;;;;;;9.57;4.40;;;;;;;20.65;63.47;101695.16;5007115;28;20041;-77
2023/09/15 10:13:41;;;;;;;8.00;3.85;;;;;;;20.73;64.47;101694.72;5003955;28;20034;-78
2023/09/15 10:16:08;;;;;;;9.40;3.97;;;;;;;20.88;64.62;101693.81;5008608;28;20105;-78
2023/09/15 10:18:37;;;;;;;10.80;4.10;;;;;;;21.01;61.91;101691.25;5006455;28;20111;-78
2023/09/15 10:21:06;;;;;;;8.45;4.10;;;;;;;21.06;61.81;101694.53;5007213;28;20530;-78
2023/09/15 10:23:35;;;;;;;13.63;4.47;;;;;;;21.14;61.95;101679.78;4998946;28;20040;-77
2023/09/15 10:26:06;;;;;;;9.50;4.50;;;;;;;21.24;60.86;101678.25;4981333;28;20132;-77
2023/09/15 10:28:33;;;;;;;8.00;4.13;;;;;;;21.36;60.04;101680.16;5005033;28;20045;-77
2023/09/15 10:31:05;;;;;;;8.05;4.15;;;;;;;21.40;59.77;101670.97;5004021;28;20561;-77
2023/09/15 10:33:39;;;;;;;6.07;4.35;;;;;;;21.50;59.63;101676.59;5004792;28;20565;-76
2023/09/15 10:36:13;;;;;;;7.18;4.20;;;;;;;21.59;59.90;101675.19;5005248;28;20136;-77
2023/09/15 10:38:45;;;;;;;7.50;3.55;;;;;;;21.69;60.20;101662.03;5002879;28;20064;-76
2023/09/15 10:41:29;;;;;;;5.25;3.25;;;;;;;21.86;59.43;101664.50;5003892;28;20052;-77
2023/09/15 10:43:56;;;;;;;10.90;4.53;;;;;;;21.95;58.28;101660.34;5004736;28;20408;-77
2023/09/15 10:46:39;;;;;;;8.57;4.22;;;;;;;22.00;56.61;101660.03;5005424;28;20042;-77
2023/09/15 10:49:35;;;;;;;6.72;4.05;;;;;;;21.98;55.84;101651.22;5004504;28;20125;-77
2023/09/15 10:52:03;;;;;;;6.97;4.57;;;;;;;21.94;56.13;101653.25;5012580;28;20066;-76
2023/09/15 10:54:38;;;;;;;6.82;4.22;;;;;;;21.97;56.34;101646.84;5004144;28;20045;-80
2023/09/15 10:57:08;;;;;;;7.00;3.95;;;;;;;22.00;57.78;101644.81;5005980;28;20042;-77
2023/09/15 10:59:36;;;;;;;8.13;4.30;;;;;;;22.11;57.24;101640.56;5004135;28;20455;-76
2023/09/15 11:02:04;;;;;;;6.53;3.22;;;;;;;22.18;57.05;101645.38;5020715;28;20135;-76
2023/09/15 11:04:32;;;;;;;7.05;4.00;;;;;;;22.26;55.90;101642.19;5004106;28;20536;-77
2023/09/15 11:07:02;;;;;;;7.15;3.85;;;;;;;22.33;54.78;101643.50;5000583;28;20414;-77
2023/09/15 11:09:29;;;;;;;7.63;3.78;;;;;;;22.36;55.88;101636.19;5018811;28;20034;-76
2023/09/15 11:11:57;;;;;;;7.10;3.50;;;;;;;22.45;56.30;101638.28;5006887;28;20120;-77
2023/09/15 11:14:24;;;;;;;7.80;4.15;;;;;;;22.53;54.47;101625.22;5005345;28;20049;-77
2023/09/15 11:16:54;;;;;;;6.82;3.80;;;;;;;22.59;54.94;101629.28;5006902;28;20041;-77
2023/09/15 11:19:26;;;;;;;7.05;3.95;;;;;;;22.62;54.14;101624.56;5010385;28;20057;-77
2023/09/15 11:21:53;;;;;;;7.13;3.80;;;;;;;22.66;55.04;101627.91;5016387;28;20034;-77
2023/09/15 11:24:22;;;;;;;6.55;4.10;;;;;;;22.73;52.48;101620.28;5007664;28;20545;-77
2023/09/15 11:26:52;;;;;;;6.32;3.35;;;;;;;22.71;53.01;101630.28;4989587;28;20046;-76